地図

経路データ

SID SEASON NUMBER BASIN SUBBASIN NAME ISO_TIME NATURE LAT LON WMO_WIND WMO_PRES WMO_AGENCY TRACK_TYPE DIST2LAND LANDFALL IFLAG USA_AGENCY USA_ATCF_ID USA_LAT USA_LON USA_RECORD USA_STATUS USA_WIND USA_PRES USA_SSHS USA_R34_NE USA_R34_SE USA_R34_SW USA_R34_NW USA_R50_NE USA_R50_SE USA_R50_SW USA_R50_NW USA_R64_NE USA_R64_SE USA_R64_SW USA_R64_NW USA_POCI USA_ROCI USA_RMW USA_EYE TOKYO_LAT TOKYO_LON TOKYO_GRADE TOKYO_WIND TOKYO_PRES TOKYO_R50_DIR TOKYO_R50_LONG TOKYO_R50_SHORT TOKYO_R30_DIR TOKYO_R30_LONG TOKYO_R30_SHORT TOKYO_LAND CMA_LAT CMA_LON CMA_CAT CMA_WIND CMA_PRES HKO_LAT HKO_LON HKO_CAT HKO_WIND HKO_PRES NEWDELHI_LAT NEWDELHI_LON NEWDELHI_GRADE NEWDELHI_WIND NEWDELHI_PRES NEWDELHI_CI NEWDELHI_DP NEWDELHI_POCI REUNION_LAT REUNION_LON REUNION_TYPE REUNION_WIND REUNION_PRES REUNION_TNUM REUNION_CI REUNION_RMW REUNION_R34_NE REUNION_R34_SE REUNION_R34_SW REUNION_R34_NW REUNION_R50_NE REUNION_R50_SE REUNION_R50_SW REUNION_R50_NW REUNION_R64_NE REUNION_R64_SE REUNION_R64_SW REUNION_R64_NW BOM_LAT BOM_LON BOM_TYPE BOM_WIND BOM_PRES BOM_TNUM BOM_CI BOM_RMW BOM_R34_NE BOM_R34_SE BOM_R34_SW BOM_R34_NW BOM_R50_NE BOM_R50_SE BOM_R50_SW BOM_R50_NW BOM_R64_NE BOM_R64_SE BOM_R64_SW BOM_R64_NW BOM_ROCI BOM_POCI BOM_EYE BOM_POS_METHOD BOM_PRES_METHOD NADI_LAT NADI_LON NADI_CAT NADI_WIND NADI_PRES WELLINGTON_LAT WELLINGTON_LON WELLINGTON_WIND WELLINGTON_PRES DS824_LAT DS824_LON DS824_STAGE DS824_WIND DS824_PRES TD9636_LAT TD9636_LON TD9636_STAGE TD9636_WIND TD9636_PRES TD9635_LAT TD9635_LON TD9635_WIND TD9635_PRES TD9635_ROCI NEUMANN_LAT NEUMANN_LON NEUMANN_CLASS NEUMANN_WIND NEUMANN_PRES MLC_LAT MLC_LON MLC_CLASS MLC_WIND MLC_PRES USA_GUST BOM_GUST BOM_GUST_PER REUNION_GUST REUNION_GUST_PER USA_SEAHGT USA_SEARAD_NE USA_SEARAD_SE USA_SEARAD_SW USA_SEARAD_NW STORM_SPEED STORM_DIR
1955157N14251 1955 33 EP MM NOT_NAMED 1955-06-06 00:00:00 TS 14.1000 -109.100 75 hurdat_epa main 731 729 O________OO___ hurdat_epa EP011955 14.1000 -109.100 HU 75 1 14.1000 -109.100 TC 75 14.1000 -109.100 4 4 301
1955157N14251 1955 33 EP MM NOT_NAMED 1955-06-06 03:00:00 TS 14.1929 -109.256 main 736 728 P________PP___ EP011955 14.1825 -109.253 HU 75 1 14.1825 -109.253 TC 75 14.2345 -109.272 4 4 306
1955157N14251 1955 33 EP MM NOT_NAMED 1955-06-06 06:00:00 TS 14.3150 -109.405 75 hurdat_epa main 735 725 O________OP___ hurdat_epa EP011955 14.3000 -109.400 HU 75 1 14.3000 -109.400 TC 75 14.3751 -109.425 4 4 318
1955157N14251 1955 33 EP MM NOT_NAMED 1955-06-06 09:00:00 TS 14.4876 -109.532 main 725 717 P________PP___ EP011955 14.4775 -109.530 HU 75 1 14.4775 -109.530 TC 75 14.5282 -109.540 4 4 334
1955157N14251 1955 33 EP MM NOT_NAMED 1955-06-06 12:00:00 TS 14.7000 -109.600 75 hurdat_epa main 717 701 O________OO___ hurdat_epa EP011955 14.7000 -109.600 HU 75 1 14.7000 -109.600 TC 75 14.7000 -109.600 4 5 355
1955157N14251 1955 33 EP MM NOT_NAMED 1955-06-06 15:00:00 TS 14.9391 -109.577 main 701 670 P________PP___ EP011955 14.9500 -109.573 HU 75 1 14.9500 -109.573 TC 75 14.8953 -109.592 4 5 11
1955157N14251 1955 33 EP MM NOT_NAMED 1955-06-06 18:00:00 TS 15.1825 -109.508 75 hurdat_epa main 670 646 O________OP___ hurdat_epa EP011955 15.2000 -109.500 HU 75 1 15.2000 -109.500 TC 75 15.1125 -109.538 4 5 15
1955157N14251 1955 33 EP MM NOT_NAMED 1955-06-06 21:00:00 TS 15.3837 -109.447 main 646 631 P________PP___ EP011955 15.3925 -109.443 HU 75 1 15.3925 -109.443 TC 75 15.3485 -109.464 4 4 14
1955157N14251 1955 33 EP MM NOT_NAMED 1955-06-07 00:00:00 TS 15.6000 -109.400 75 hurdat_epa main 631 607 O________OO___ hurdat_epa EP011955 15.6000 -109.400 HU 75 1 15.6000 -109.400 TC 75 15.6000 -109.400 4 5 6
1955157N14251 1955 33 EP MM NOT_NAMED 1955-06-07 03:00:00 TS 15.8902 -109.388 main 607 584 P________PP___ EP011955 15.8925 -109.392 HU 75 1 15.8925 -109.392 TC 75 15.8809 -109.369 4 6 2
1955157N14251 1955 33 EP MM NOT_NAMED 1955-06-07 06:00:00 TS 16.1945 -109.391 75 hurdat_epa main 584 562 O________OP___ hurdat_epa EP011955 16.2000 -109.400 HU 75 1 16.2000 -109.400 TC 75 16.1725 -109.355 4 6 2
1955157N14251 1955 33 EP MM NOT_NAMED 1955-06-07 09:00:00 TS 16.4686 -109.387 main 562 547 P________PP___ EP011955 16.4725 -109.393 HU 75 1 16.4725 -109.393 TC 75 16.4528 -109.363 4 5 0
1955157N14251 1955 33 EP MM NOT_NAMED 1955-06-07 12:00:00 TS 16.7000 -109.400 75 hurdat_epa main 547 534 O________OO___ hurdat_epa EP011955 16.7000 -109.400 HU 75 1 16.7000 -109.400 TC 75 16.7000 -109.400 4 4 354
1955157N14251 1955 33 EP MM NOT_NAMED 1955-06-07 15:00:00 TS 16.8700 -109.430 main 534 534 P________PP___ EP011955 16.8650 -109.428 HU 75 1 16.8650 -109.428 TC 75 16.8898 -109.439 4 3 343
1955157N14251 1955 33 EP MM NOT_NAMED 1955-06-07 18:00:00 TS 17.0089 -109.502 75 hurdat_epa main 536 530 O________OP___ hurdat_epa EP011955 17.0000 -109.500 HU 75 1 17.0000 -109.500 TC 75 17.0447 -109.510 4 3 328
1955157N14251 1955 33 EP MM NOT_NAMED 1955-06-07 21:00:00 TS 17.1554 -109.615 main 532 532 P________PP___ EP011955 17.1499 -109.613 HU 75 1 17.1499 -109.613 TC 75 17.1772 -109.626 4 4 316
1955157N14251 1955 33 EP MM NOT_NAMED 1955-06-08 00:00:00 TS 17.3000 -109.800 75 hurdat_epa main 544 544 O________OO___ hurdat_epa EP011955 17.3000 -109.800 HU 75 1 17.3000 -109.800 TC 75 17.3000 -109.800 4 5 304
1955157N14251 1955 33 EP MM NOT_NAMED 1955-06-08 03:00:00 TS 17.4507 -110.070 main 559 559 P________PP___ EP011955 17.4575 -110.077 HU 75 1 17.4575 -110.077 TC 75 17.4232 -110.038 4 6 297
1955157N14251 1955 33 EP MM NOT_NAMED 1955-06-08 06:00:00 TS 17.5896 -110.386 75 hurdat_epa main 581 581 O________OP___ hurdat_epa EP011955 17.6000 -110.400 HU 75 1 17.6000 -110.400 TC 75 17.5482 -110.330 4 7 293
1955157N14251 1955 33 EP MM NOT_NAMED 1955-06-08 09:00:00 TS 17.7028 -110.697 main 586 576 P________PP___ EP011955 17.7100 -110.707 HU 75 1 17.7100 -110.707 TC 75 17.6741 -110.656 4 6 290
1955157N14251 1955 33 EP MM NOT_NAMED 1955-06-08 12:00:00 TS 17.8000 -111.000 75 hurdat_epa main 579 O________OO___ hurdat_epa EP011955 17.8000 -111.000 HU 75 1 17.8000 -111.000 TC 75 17.8000 -111.000 4 6 289

IBTrACS Databaseについて

本データベースは、米国NOAAが公開する1842年以降の世界の熱帯低気圧のベストトラックデータアーカイブInternational Best Track Archive for Climate Stewardship (IBTrACS)を、ウェブで閲覧しやすい形式に変換したものです。

最終更新日:2021-12-01